sensor_id;sensor_type;location;lat;lon;timestamp;temperature;humidity
1025;DHT22;501;48.214;11.350;2023-08-01T00:00:29;19.90;41.10
1025;DHT22;501;48.214;11.350;2023-08-01T00:02:55;19.80;41.40
1025;DHT22;501;48.214;11.350;2023-08-01T00:05:20;19.80;41.60
1025;DHT22;501;48.214;11.350;2023-08-01T00:07:46;19.80;41.60
1025;DHT22;501;48.214;11.350;2023-08-01T00:10:12;19.80;41.60
1025;DHT22;501;48.214;11.350;2023-08-01T00:12:37;19.80;42.10
1025;DHT22;501;48.214;11.350;2023-08-01T00:15:03;19.80;42.30
1025;DHT22;501;48.214;11.350;2023-08-01T00:17:29;19.80;42.70
1025;DHT22;501;48.214;11.350;2023-08-01T00:19:55;19.70;42.80
1025;DHT22;501;48.214;11.350;2023-08-01T00:22:21;19.70;42.80
1025;DHT22;501;48.214;11.350;2023-08-01T00:24:46;19.70;42.80
1025;DHT22;501;48.214;11.350;2023-08-01T00:27:13;19.70;42.90
1025;DHT22;501;48.214;11.350;2023-08-01T00:29:39;19.60;42.60
1025;DHT22;501;48.214;11.350;2023-08-01T00:32:05;19.60;43.20
1025;DHT22;501;48.214;11.350;2023-08-01T00:34:31;19.60;43.40
1025;DHT22;501;48.214;11.350;2023-08-01T00:36:57;19.60;43.50
1025;DHT22;501;48.214;11.350;2023-08-01T00:39:22;19.60;43.60
1025;DHT22;501;48.214;11.350;2023-08-01T00:41:48;19.60;44.40
1025;DHT22;501;48.214;11.350;2023-08-01T00:44:14;19.50;44.50
1025;DHT22;501;48.214;11.350;2023-08-01T00:46:39;19.50;45.20
1025;DHT22;501;48.214;11.350;2023-08-01T00:49:05;19.50;45.40
1025;DHT22;501;48.214;11.350;2023-08-01T00:51:31;19.50;45.40
1025;DHT22;501;48.214;11.350;2023-08-01T00:53:58;19.50;45.60
1025;DHT22;501;48.214;11.350;2023-08-01T00:56:24;19.40;44.70
1025;DHT22;501;48.214;11.350;2023-08-01T00:58:50;19.40;44.40
1025;DHT22;501;48.214;11.350;2023-08-01T01:01:15;19.40;43.90
1025;DHT22;501;48.214;11.350;2023-08-01T01:03:41;19.40;44.10
1025;DHT22;501;48.214;11.350;2023-08-01T01:08:37;19.40;45.10
1025;DHT22;501;48.214;11.350;2023-08-01T01:11:03;19.40;45.90
1025;DHT22;501;48.214;11.350;2023-08-01T01:13:29;19.40;45.90
1025;DHT22;501;48.214;11.350;2023-08-01T01:15:55;19.30;45.80
1025;DHT22;501;48.214;11.350;2023-08-01T01:18:21;19.30;46.00
1025;DHT22;501;48.214;11.350;2023-08-01T01:20:46;19.30;45.60
1025;DHT22;501;48.214;11.350;2023-08-01T01:23:12;19.30;46.80
1025;DHT22;501;48.214;11.350;2023-08-01T01:25:39;19.30;46.60
1025;DHT22;501;48.214;11.350;2023-08-01T01:28:06;19.20;46.80
1025;DHT22;501;48.214;11.350;2023-08-01T01:30:33;19.30;48.00
1025;DHT22;501;48.214;11.350;2023-08-01T01:33:00;19.20;47.60
1025;DHT22;501;48.214;11.350;2023-08-01T01:35:26;19.20;48.00
1025;DHT22;501;48.214;11.350;2023-08-01T01:37:51;19.20;47.00
1025;DHT22;501;48.214;11.350;2023-08-01T01:40:17;19.20;47.40
1025;DHT22;501;48.214;11.350;2023-08-01T01:42:42;19.20;47.60
1025;DHT22;501;48.214;11.350;2023-08-01T01:45:08;19.20;48.50
1025;DHT22;501;48.214;11.350;2023-08-01T01:47:34;19.10;48.40
1025;DHT22;501;48.214;11.350;2023-08-01T01:50:00;19.20;49.30
1025;DHT22;501;48.214;11.350;2023-08-01T01:52:25;19.10;49.30
1025;DHT22;501;48.214;11.350;2023-08-01T01:54:51;19.10;50.20
1025;DHT22;501;48.214;11.350;2023-08-01T01:57:16;19.10;50.70
1025;DHT22;501;48.214;11.350;2023-08-01T01:59:42;19.00;51.30
1025;DHT22;501;48.214;11.350;2023-08-01T02:02:08;19.10;50.40
1025;DHT22;501;48.214;11.350;2023-08-01T02:04:33;19.10;51.00
1025;DHT22;501;48.214;11.350;2023-08-01T02:06:59;19.00;50.00
1025;DHT22;501;48.214;11.350;2023-08-01T02:09:24;19.00;50.60
1025;DHT22;501;48.214;11.350;2023-08-01T02:11:50;19.00;50.80
1025;DHT22;501;48.214;11.350;2023-08-01T02:14:15;19.00;50.00
1025;DHT22;501;48.214;11.350;2023-08-01T02:16:41;19.00;49.80
1025;DHT22;501;48.214;11.350;2023-08-01T02:19:07;19.00;50.30
1025;DHT22;501;48.214;11.350;2023-08-01T02:21:32;18.90;50.20
1025;DHT22;501;48.214;11.350;2023-08-01T02:23:58;18.90;50.40
1025;DHT22;501;48.214;11.350;2023-08-01T02:26:23;18.90;49.90
1025;DHT22;501;48.214;11.350;2023-08-01T02:28:50;18.90;49.40
1025;DHT22;501;48.214;11.350;2023-08-01T02:31:16;18.90;48.50
1025;DHT22;501;48.214;11.350;2023-08-01T02:33:42;18.90;48.30
1025;DHT22;501;48.214;11.350;2023-08-01T02:36:07;18.90;48.30
1025;DHT22;501;48.214;11.350;2023-08-01T02:38:33;18.90;49.10
1025;DHT22;501;48.214;11.350;2023-08-01T02:40:59;18.90;49.50
1025;DHT22;501;48.214;11.350;2023-08-01T02:43:24;18.90;50.50
1025;DHT22;501;48.214;11.350;2023-08-01T02:45:50;18.80;50.10
1025;DHT22;501;48.214;11.350;2023-08-01T02:48:16;18.80;50.70
1025;DHT22;501;48.214;11.350;2023-08-01T02:50:41;18.80;51.00
1025;DHT22;501;48.214;11.350;2023-08-01T02:53:07;18.80;51.30
1025;DHT22;501;48.214;11.350;2023-08-01T02:55:33;18.80;52.60
1025;DHT22;501;48.214;11.350;2023-08-01T02:57:58;18.80;53.10
1025;DHT22;501;48.214;11.350;2023-08-01T03:00:24;18.80;53.80
1025;DHT22;501;48.214;11.350;2023-08-01T03:02:51;18.80;54.70
1025;DHT22;501;48.214;11.350;2023-08-01T03:05:16;18.80;56.00
1025;DHT22;501;48.214;11.350;2023-08-01T03:07:42;18.80;57.00
1025;DHT22;501;48.214;11.350;2023-08-01T03:10:08;18.80;57.50
1025;DHT22;501;48.214;11.350;2023-08-01T03:12:34;18.80;58.10
1025;DHT22;501;48.214;11.350;2023-08-01T03:15:00;18.70;58.70
1025;DHT22;501;48.214;11.350;2023-08-01T03:17:26;18.70;59.60
1025;DHT22;501;48.214;11.350;2023-08-01T03:19:52;18.70;59.60
1025;DHT22;501;48.214;11.350;2023-08-01T03:22:18;18.60;56.80
1025;DHT22;501;48.214;11.350;2023-08-01T03:24:43;18.60;57.90
1025;DHT22;501;48.214;11.350;2023-08-01T03:27:09;18.60;57.10
1025;DHT22;501;48.214;11.350;2023-08-01T03:29:34;18.60;58.50
1025;DHT22;501;48.214;11.350;2023-08-01T03:32:00;18.60;59.70
1025;DHT22;501;48.214;11.350;2023-08-01T03:34:26;18.60;60.80
1025;DHT22;501;48.214;11.350;2023-08-01T03:36:52;18.60;60.90
1025;DHT22;501;48.214;11.350;2023-08-01T03:39:18;18.50;60.80
1025;DHT22;501;48.214;11.350;2023-08-01T03:41:43;18.50;61.60
1025;DHT22;501;48.214;11.350;2023-08-01T03:44:09;18.50;61.10
1025;DHT22;501;48.214;11.350;2023-08-01T03:46:35;18.50;61.10
1025;DHT22;501;48.214;11.350;2023-08-01T03:49:00;18.50;61.00
1025;DHT22;501;48.214;11.350;2023-08-01T03:51:26;18.50;61.30
1025;DHT22;501;48.214;11.350;2023-08-01T03:53:51;18.50;61.30
1025;DHT22;501;48.214;11.350;2023-08-01T03:56:17;18.50;61.60
1025;DHT22;501;48.214;11.350;2023-08-01T03:58:43;18.50;62.30
1025;DHT22;501;48.214;11.350;2023-08-01T04:01:08;18.40;62.40
1025;DHT22;501;48.214;11.350;2023-08-01T04:03:34;18.40;60.90
1025;DHT22;501;48.214;11.350;2023-08-01T04:06:00;18.40;61.30
1025;DHT22;501;48.214;11.350;2023-08-01T04:08:25;18.30;62.10
1025;DHT22;501;48.214;11.350;2023-08-01T04:10:51;18.30;61.00
1025;DHT22;501;48.214;11.350;2023-08-01T04:13:17;18.20;63.10
1025;DHT22;501;48.214;11.350;2023-08-01T04:15:42;18.20;62.90
1025;DHT22;501;48.214;11.350;2023-08-01T04:18:08;18.20;64.50
1025;DHT22;501;48.214;11.350;2023-08-01T04:20:33;18.20;65.90
1025;DHT22;501;48.214;11.350;2023-08-01T04:22:59;18.20;66.70
1025;DHT22;501;48.214;11.350;2023-08-01T04:25:25;18.20;67.70
1025;DHT22;501;48.214;11.350;2023-08-01T04:27:52;18.20;69.40
1025;DHT22;501;48.214;11.350;2023-08-01T04:30:18;18.20;69.60
1025;DHT22;501;48.214;11.350;2023-08-01T04:32:44;18.20;70.50
1025;DHT22;501;48.214;11.350;2023-08-01T04:35:09;18.20;70.70
1025;DHT22;501;48.214;11.350;2023-08-01T04:37:35;18.20;71.80
1025;DHT22;501;48.214;11.350;2023-08-01T04:40:00;18.20;72.30
1025;DHT22;501;48.214;11.350;2023-08-01T04:42:26;18.20;71.40
1025;DHT22;501;48.214;11.350;2023-08-01T04:44:52;18.20;71.70
1025;DHT22;501;48.214;11.350;2023-08-01T04:47:19;18.20;71.50
1025;DHT22;501;48.214;11.350;2023-08-01T04:49:44;18.20;71.40
1025;DHT22;501;48.214;11.350;2023-08-01T04:52:10;18.20;72.00
1025;DHT22;501;48.214;11.350;2023-08-01T04:54:36;18.20;72.90
1025;DHT22;501;48.214;11.350;2023-08-01T04:57:01;18.20;71.80
1025;DHT22;501;48.214;11.350;2023-08-01T04:59:27;18.20;70.90
1025;DHT22;501;48.214;11.350;2023-08-01T05:01:52;18.20;70.80
1025;DHT22;501;48.214;11.350;2023-08-01T05:04:18;18.10;71.90
1025;DHT22;501;48.214;11.350;2023-08-01T05:06:44;18.10;72.20
1025;DHT22;501;48.214;11.350;2023-08-01T05:09:09;18.10;72.60
1025;DHT22;501;48.214;11.350;2023-08-01T05:11:35;18.10;72.60
1025;DHT22;501;48.214;11.350;2023-08-01T05:14:00;18.10;72.20
1025;DHT22;501;48.214;11.350;2023-08-01T05:16:26;18.10;73.60
1025;DHT22;501;48.214;11.350;2023-08-01T05:18:51;18.10;73.60
1025;DHT22;501;48.214;11.350;2023-08-01T05:21:17;18.10;72.60
1025;DHT22;501;48.214;11.350;2023-08-01T05:23:43;18.10;73.60
1025;DHT22;501;48.214;11.350;2023-08-01T05:26:08;18.10;75.20
1025;DHT22;501;48.214;11.350;2023-08-01T05:28:34;18.20;74.70
1025;DHT22;501;48.214;11.350;2023-08-01T05:30:59;18.10;73.60
1025;DHT22;501;48.214;11.350;2023-08-01T05:33:25;18.10;73.60
1025;DHT22;501;48.214;11.350;2023-08-01T05:35:51;18.10;73.70
1025;DHT22;501;48.214;11.350;2023-08-01T05:38:16;18.10;72.90
1025;DHT22;501;48.214;11.350;2023-08-01T05:40:42;18.10;73.50
1025;DHT22;501;48.214;11.350;2023-08-01T05:43:07;18.10;72.80
1025;DHT22;501;48.214;11.350;2023-08-01T05:45:34;18.10;71.10
1025;DHT22;501;48.214;11.350;2023-08-01T05:48:01;18.10;71.60
1025;DHT22;501;48.214;11.350;2023-08-01T05:50:27;18.10;72.90
1025;DHT22;501;48.214;11.350;2023-08-01T05:52:52;18.20;73.30
1025;DHT22;501;48.214;11.350;2023-08-01T05:55:18;18.20;66.80
1025;DHT22;501;48.214;11.350;2023-08-01T05:57:44;18.20;66.50
1025;DHT22;501;48.214;11.350;2023-08-01T06:00:10;18.10;66.70
1025;DHT22;501;48.214;11.350;2023-08-01T06:02:36;18.20;68.10
1025;DHT22;501;48.214;11.350;2023-08-01T06:05:01;18.20;67.60
1025;DHT22;501;48.214;11.350;2023-08-01T06:07:27;18.20;66.20
1025;DHT22;501;48.214;11.350;2023-08-01T06:09:53;18.20;65.40
1025;DHT22;501;48.214;11.350;2023-08-01T06:12:18;18.20;62.80
1025;DHT22;501;48.214;11.350;2023-08-01T06:14:44;18.20;65.10
1025;DHT22;501;48.214;11.350;2023-08-01T06:17:10;18.20;60.50
1025;DHT22;501;48.214;11.350;2023-08-01T06:19:36;18.20;62.60
1025;DHT22;501;48.214;11.350;2023-08-01T06:22:01;18.20;60.10
1025;DHT22;501;48.214;11.350;2023-08-01T06:24:27;18.20;59.40
1025;DHT22;501;48.214;11.350;2023-08-01T06:26:53;18.20;56.50
1025;DHT22;501;48.214;11.350;2023-08-01T06:29:18;18.20;58.00
1025;DHT22;501;48.214;11.350;2023-08-01T06:31:44;18.20;56.70
1025;DHT22;501;48.214;11.350;2023-08-01T06:34:09;18.20;56.00
1025;DHT22;501;48.214;11.350;2023-08-01T06:36:35;18.20;55.60
1025;DHT22;501;48.214;11.350;2023-08-01T06:39:01;18.20;55.60
1025;DHT22;501;48.214;11.350;2023-08-01T06:41:26;18.10;52.00
1025;DHT22;501;48.214;11.350;2023-08-01T06:43:52;18.20;52.10
1025;DHT22;501;48.214;11.350;2023-08-01T06:46:18;18.20;53.60
1025;DHT22;501;48.214;11.350;2023-08-01T06:48:43;18.20;51.60
1025;DHT22;501;48.214;11.350;2023-08-01T06:51:09;18.20;50.40
1025;DHT22;501;48.214;11.350;2023-08-01T06:53:34;18.20;50.90
1025;DHT22;501;48.214;11.350;2023-08-01T06:56:00;18.20;46.80
1025;DHT22;501;48.214;11.350;2023-08-01T06:58:25;18.20;50.00
1025;DHT22;501;48.214;11.350;2023-08-01T07:00:51;18.30;50.50
1025;DHT22;501;48.214;11.350;2023-08-01T07:03:17;18.30;48.60
1025;DHT22;501;48.214;11.350;2023-08-01T07:05:42;18.30;47.60
1025;DHT22;501;48.214;11.350;2023-08-01T07:08:08;18.30;47.80
1025;DHT22;501;48.214;11.350;2023-08-01T07:10:37;18.30;49.80
1025;DHT22;501;48.214;11.350;2023-08-01T07:13:03;18.40;47.80
1025;DHT22;501;48.214;11.350;2023-08-01T07:15:32;18.40;44.60
1025;DHT22;501;48.214;11.350;2023-08-01T07:17:58;18.50;46.60
1025;DHT22;501;48.214;11.350;2023-08-01T07:20:24;18.50;47.20
1025;DHT22;501;48.214;11.350;2023-08-01T07:22:50;18.60;47.70
1025;DHT22;501;48.214;11.350;2023-08-01T07:25:15;18.70;44.70
1025;DHT22;501;48.214;11.350;2023-08-01T07:27:42;18.70;44.60
1025;DHT22;501;48.214;11.350;2023-08-01T07:30:08;18.70;45.60
1025;DHT22;501;48.214;11.350;2023-08-01T07:32:35;18.80;43.50
1025;DHT22;501;48.214;11.350;2023-08-01T07:35:03;18.90;43.80
1025;DHT22;501;48.214;11.350;2023-08-01T07:37:29;18.90;43.20
1025;DHT22;501;48.214;11.350;2023-08-01T07:39:55;19.00;42.20
1025;DHT22;501;48.214;11.350;2023-08-01T07:42:21;19.10;43.90
1025;DHT22;501;48.214;11.350;2023-08-01T07:44:47;19.20;43.80
1025;DHT22;501;48.214;11.350;2023-08-01T07:47:12;19.30;42.50
1025;DHT22;501;48.214;11.350;2023-08-01T07:49:38;19.40;41.70
1025;DHT22;501;48.214;11.350;2023-08-01T07:52:04;19.50;41.10
1025;DHT22;501;48.214;11.350;2023-08-01T07:54:29;19.70;40.40
1025;DHT22;501;48.214;11.350;2023-08-01T07:56:55;19.80;40.00
1025;DHT22;501;48.214;11.350;2023-08-01T07:59:21;19.90;40.50
1025;DHT22;501;48.214;11.350;2023-08-01T08:01:46;20.00;39.20
1025;DHT22;501;48.214;11.350;2023-08-01T08:04:12;20.20;40.40
1025;DHT22;501;48.214;11.350;2023-08-01T08:06:40;20.30;40.50
1025;DHT22;501;48.214;11.350;2023-08-01T08:09:06;20.40;39.80
1025;DHT22;501;48.214;11.350;2023-08-01T08:11:32;20.50;40.10
1025;DHT22;501;48.214;11.350;2023-08-01T08:13:59;20.60;40.70
1025;DHT22;501;48.214;11.350;2023-08-01T08:16:24;20.60;40.70
1025;DHT22;501;48.214;11.350;2023-08-01T08:18:50;20.70;40.80
1025;DHT22;501;48.214;11.350;2023-08-01T08:21:16;20.70;40.80
1025;DHT22;501;48.214;11.350;2023-08-01T08:23:41;20.70;40.80
1025;DHT22;501;48.214;11.350;2023-08-01T08:26:07;20.70;40.80
1025;DHT22;501;48.214;11.350;2023-08-01T08:28:33;20.70;40.80
1025;DHT22;501;48.214;11.350;2023-08-01T08:31:00;20.70;40.80
1025;DHT22;501;48.214;11.350;2023-08-01T08:33:26;20.80;41.30
1025;DHT22;501;48.214;11.350;2023-08-01T08:35:52;20.80;40.90
1025;DHT22;501;48.214;11.350;2023-08-01T08:38:18;20.80;40.90
1025;DHT22;501;48.214;11.350;2023-08-01T08:40:56;20.80;41.70
1025;DHT22;501;48.214;11.350;2023-08-01T08:43:26;20.90;41.60
1025;DHT22;501;48.214;11.350;2023-08-01T08:45:53;20.90;41.00
1025;DHT22;501;48.214;11.350;2023-08-01T08:48:22;21.00;39.60
1025;DHT22;501;48.214;11.350;2023-08-01T08:50:49;21.00;39.80
1025;DHT22;501;48.214;11.350;2023-08-01T08:53:15;20.90;42.00
1025;DHT22;501;48.214;11.350;2023-08-01T08:55:41;21.00;41.10
1025;DHT22;501;48.214;11.350;2023-08-01T08:58:08;20.90;41.00
1025;DHT22;501;48.214;11.350;2023-08-01T09:00:35;20.90;42.10
1025;DHT22;501;48.214;11.350;2023-08-01T09:03:05;20.90;41.00
1025;DHT22;501;48.214;11.350;2023-08-01T09:05:37;20.90;40.00
1025;DHT22;501;48.214;11.350;2023-08-01T09:08:07;20.90;41.00
1025;DHT22;501;48.214;11.350;2023-08-01T09:10:37;21.00;41.10
1025;DHT22;501;48.214;11.350;2023-08-01T09:13:02;21.10;40.10
1025;DHT22;501;48.214;11.350;2023-08-01T09:15:28;21.20;40.00
1025;DHT22;501;48.214;11.350;2023-08-01T09:17:55;21.20;40.80
1025;DHT22;501;48.214;11.350;2023-08-01T09:20:26;21.30;40.00
1025;DHT22;501;48.214;11.350;2023-08-01T09:22:52;21.40;40.80
1025;DHT22;501;48.214;11.350;2023-08-01T09:25:18;21.50;40.40
1025;DHT22;501;48.214;11.350;2023-08-01T09:27:43;21.50;40.30
1025;DHT22;501;48.214;11.350;2023-08-01T09:30:11;21.50;38.90
1025;DHT22;501;48.214;11.350;2023-08-01T09:32:39;21.50;39.40
1025;DHT22;501;48.214;11.350;2023-08-01T09:35:05;21.40;40.10
1025;DHT22;501;48.214;11.350;2023-08-01T09:37:43;21.40;40.00
1025;DHT22;501;48.214;11.350;2023-08-01T09:40:10;21.40;39.10
1025;DHT22;501;48.214;11.350;2023-08-01T09:42:43;21.40;38.50
1025;DHT22;501;48.214;11.350;2023-08-01T09:47:39;21.40;40.20
1025;DHT22;501;48.214;11.350;2023-08-01T09:50:05;21.40;41.50
1025;DHT22;501;48.214;11.350;2023-08-01T09:52:31;21.50;39.60
1025;DHT22;501;48.214;11.350;2023-08-01T09:54:57;21.60;38.60
1025;DHT22;501;48.214;11.350;2023-08-01T09:57:22;21.60;39.10
1025;DHT22;501;48.214;11.350;2023-08-01T09:59:52;21.60;37.00
1025;DHT22;501;48.214;11.350;2023-08-01T10:02:20;21.60;36.90
1025;DHT22;501;48.214;11.350;2023-08-01T10:04:49;21.40;38.70
1025;DHT22;501;48.214;11.350;2023-08-01T10:07:23;21.10;43.60
1025;DHT22;501;48.214;11.350;2023-08-01T10:09:49;20.70;47.40
1025;DHT22;501;48.214;11.350;2023-08-01T10:12:17;20.40;46.70
1025;DHT22;501;48.214;11.350;2023-08-01T10:14:44;20.00;50.30
1025;DHT22;501;48.214;11.350;2023-08-01T10:17:11;19.60;52.60
1025;DHT22;501;48.214;11.350;2023-08-01T10:19:37;19.30;55.90
1025;DHT22;501;48.214;11.350;2023-08-01T10:22:04;19.10;57.10
1025;DHT22;501;48.214;11.350;2023-08-01T10:24:32;18.90;58.90
1025;DHT22;501;48.214;11.350;2023-08-01T10:27:18;18.80;59.10
1025;DHT22;501;48.214;11.350;2023-08-01T10:29:44;18.70;59.70
1025;DHT22;501;48.214;11.350;2023-08-01T10:32:10;18.60;61.20
1025;DHT22;501;48.214;11.350;2023-08-01T10:34:36;18.60;62.40
1025;DHT22;501;48.214;11.350;2023-08-01T10:37:02;18.60;63.20
1025;DHT22;501;48.214;11.350;2023-08-01T10:39:28;18.60;65.50
1025;DHT22;501;48.214;11.350;2023-08-01T10:42:04;18.60;65.50
1025;DHT22;501;48.214;11.350;2023-08-01T10:44:31;18.60;65.50
1025;DHT22;501;48.214;11.350;2023-08-01T10:47:03;18.70;63.40
1025;DHT22;501;48.214;11.350;2023-08-01T10:49:39;18.60;62.10
1025;DHT22;501;48.214;11.350;2023-08-01T10:52:20;18.70;64.40
1025;DHT22;501;48.214;11.350;2023-08-01T10:54:59;18.70;63.00
1025;DHT22;501;48.214;11.350;2023-08-01T10:57:27;18.70;58.30
1025;DHT22;501;48.214;11.350;2023-08-01T10:59:55;18.60;62.20
1025;DHT22;501;48.214;11.350;2023-08-01T11:02:26;18.70;64.60
1025;DHT22;501;48.214;11.350;2023-08-01T11:04:59;18.70;62.50
1025;DHT22;501;48.214;11.350;2023-08-01T11:07:25;18.70;61.30
1025;DHT22;501;48.214;11.350;2023-08-01T11:12:28;18.70;59.80
1025;DHT22;501;48.214;11.350;2023-08-01T11:15:01;18.80;59.10
1025;DHT22;501;48.214;11.350;2023-08-01T11:17:28;18.90;62.00
1025;DHT22;501;48.214;11.350;2023-08-01T11:20:10;19.00;60.10
1025;DHT22;501;48.214;11.350;2023-08-01T11:22:36;19.20;58.70
1025;DHT22;501;48.214;11.350;2023-08-01T11:25:03;19.20;57.20
1025;DHT22;501;48.214;11.350;2023-08-01T11:27:29;19.30;57.50
1025;DHT22;501;48.214;11.350;2023-08-01T11:29:55;19.40;57.60
1025;DHT22;501;48.214;11.350;2023-08-01T11:32:22;19.40;57.60
1025;DHT22;501;48.214;11.350;2023-08-01T11:34:57;19.50;55.60
1025;DHT22;501;48.214;11.350;2023-08-01T11:37:25;19.50;54.00
1025;DHT22;501;48.214;11.350;2023-08-01T11:39:51;19.40;53.20
1025;DHT22;501;48.214;11.350;2023-08-01T11:42:17;19.40;53.10
1025;DHT22;501;48.214;11.350;2023-08-01T11:44:43;19.30;54.80
1025;DHT22;501;48.214;11.350;2023-08-01T11:47:16;19.20;57.40
1025;DHT22;501;48.214;11.350;2023-08-01T11:49:49;19.10;57.90
1025;DHT22;501;48.214;11.350;2023-08-01T11:52:28;19.00;60.70
1025;DHT22;501;48.214;11.350;2023-08-01T11:54:54;19.00;61.70
1025;DHT22;501;48.214;11.350;2023-08-01T11:57:21;18.90;61.40
1025;DHT22;501;48.214;11.350;2023-08-01T11:59:51;18.90;61.40
1025;DHT22;501;48.214;11.350;2023-08-01T12:02:21;18.90;61.40
1025;DHT22;501;48.214;11.350;2023-08-01T12:04:48;18.90;59.80
1025;DHT22;501;48.214;11.350;2023-08-01T12:07:14;18.90;61.10
1025;DHT22;501;48.214;11.350;2023-08-01T12:09:40;19.00;61.60
1025;DHT22;501;48.214;11.350;2023-08-01T12:12:08;19.10;64.10
1025;DHT22;501;48.214;11.350;2023-08-01T12:14:34;19.20;64.80
1025;DHT22;501;48.214;11.350;2023-08-01T12:16:59;19.30;61.50
1025;DHT22;501;48.214;11.350;2023-08-01T12:19:25;19.50;60.20
1025;DHT22;501;48.214;11.350;2023-08-01T12:21:50;19.60;61.40
1025;DHT22;501;48.214;11.350;2023-08-01T12:24:16;19.70;57.20
1025;DHT22;501;48.214;11.350;2023-08-01T12:26:41;19.70;55.80
1025;DHT22;501;48.214;11.350;2023-08-01T12:29:07;19.80;55.20
1025;DHT22;501;48.214;11.350;2023-08-01T12:31:33;19.80;55.80
1025;DHT22;501;48.214;11.350;2023-08-01T12:33:59;19.90;54.80
1025;DHT22;501;48.214;11.350;2023-08-01T12:36:24;20.00;54.50
1025;DHT22;501;48.214;11.350;2023-08-01T12:38:50;20.10;53.80
1025;DHT22;501;48.214;11.350;2023-08-01T12:41:16;20.10;52.50
1025;DHT22;501;48.214;11.350;2023-08-01T12:43:41;20.10;53.80
1025;DHT22;501;48.214;11.350;2023-08-01T12:46:07;20.10;53.80
1025;DHT22;501;48.214;11.350;2023-08-01T12:48:32;20.10;55.40
1025;DHT22;501;48.214;11.350;2023-08-01T12:50:58;20.20;55.00
1025;DHT22;501;48.214;11.350;2023-08-01T12:53:24;20.30;52.60
1025;DHT22;501;48.214;11.350;2023-08-01T12:55:50;20.40;52.50
1025;DHT22;501;48.214;11.350;2023-08-01T12:58:16;20.50;55.50
1025;DHT22;501;48.214;11.350;2023-08-01T13:00:43;20.90;52.50
1025;DHT22;501;48.214;11.350;2023-08-01T13:03:10;21.10;48.20
1025;DHT22;501;48.214;11.350;2023-08-01T13:05:39;21.20;49.90
1025;DHT22;501;48.214;11.350;2023-08-01T13:08:05;21.40;48.40
1025;DHT22;501;48.214;11.350;2023-08-01T13:10:32;21.50;46.60
1025;DHT22;501;48.214;11.350;2023-08-01T13:12:58;21.40;46.30
1025;DHT22;501;48.214;11.350;2023-08-01T13:15:24;21.30;46.60
1025;DHT22;501;48.214;11.350;2023-08-01T13:17:50;21.20;47.30
1025;DHT22;501;48.214;11.350;2023-08-01T13:20:16;21.30;48.50
1025;DHT22;501;48.214;11.350;2023-08-01T13:22:42;21.30;48.20
1025;DHT22;501;48.214;11.350;2023-08-01T13:25:08;21.40;48.50
1025;DHT22;501;48.214;11.350;2023-08-01T13:27:37;21.70;46.90
1025;DHT22;501;48.214;11.350;2023-08-01T13:30:03;21.90;46.00
1025;DHT22;501;48.214;11.350;2023-08-01T13:32:28;22.00;46.80
1025;DHT22;501;48.214;11.350;2023-08-01T13:34:54;22.10;44.30
1025;DHT22;501;48.214;11.350;2023-08-01T13:37:20;22.20;45.40
1025;DHT22;501;48.214;11.350;2023-08-01T13:39:45;22.30;44.10
1025;DHT22;501;48.214;11.350;2023-08-01T13:42:12;22.30;43.50
1025;DHT22;501;48.214;11.350;2023-08-01T13:44:38;22.30;44.50
1025;DHT22;501;48.214;11.350;2023-08-01T13:47:04;22.20;43.20
1025;DHT22;501;48.214;11.350;2023-08-01T13:49:30;22.10;42.10
1025;DHT22;501;48.214;11.350;2023-08-01T13:51:56;22.00;43.80
1025;DHT22;501;48.214;11.350;2023-08-01T13:54:21;21.80;45.20
1025;DHT22;501;48.214;11.350;2023-08-01T13:56:47;21.70;44.50
1025;DHT22;501;48.214;11.350;2023-08-01T13:59:13;21.60;45.40
1025;DHT22;501;48.214;11.350;2023-08-01T14:01:39;21.40;46.10
1025;DHT22;501;48.214;11.350;2023-08-01T14:04:04;21.30;47.60
1025;DHT22;501;48.214;11.350;2023-08-01T14:06:30;21.10;49.10
1025;DHT22;501;48.214;11.350;2023-08-01T14:08:56;20.70;52.40
1025;DHT22;501;48.214;11.350;2023-08-01T14:11:22;20.30;53.80
1025;DHT22;501;48.214;11.350;2023-08-01T14:13:49;20.00;55.30
1025;DHT22;501;48.214;11.350;2023-08-01T14:16:14;19.70;56.00
1025;DHT22;501;48.214;11.350;2023-08-01T14:18:42;19.60;56.40
1025;DHT22;501;48.214;11.350;2023-08-01T14:21:08;19.40;58.60
1025;DHT22;501;48.214;11.350;2023-08-01T14:23:34;19.30;59.20
1025;DHT22;501;48.214;11.350;2023-08-01T14:25:59;19.30;61.60
1025;DHT22;501;48.214;11.350;2023-08-01T14:28:25;19.30;60.80
1025;DHT22;501;48.214;11.350;2023-08-01T14:30:51;19.30;62.60
1025;DHT22;501;48.214;11.350;2023-08-01T14:33:16;19.30;63.50
1025;DHT22;501;48.214;11.350;2023-08-01T14:35:42;19.40;62.50
1025;DHT22;501;48.214;11.350;2023-08-01T14:38:08;19.50;73.10
1025;DHT22;501;48.214;11.350;2023-08-01T14:40:35;19.80;71.10
1025;DHT22;501;48.214;11.350;2023-08-01T14:43:04;20.20;72.70
1025;DHT22;501;48.214;11.350;2023-08-01T14:45:30;20.60;66.40
1025;DHT22;501;48.214;11.350;2023-08-01T14:47:56;21.00;63.80
1025;DHT22;501;48.214;11.350;2023-08-01T14:50:22;21.50;67.40
1025;DHT22;501;48.214;11.350;2023-08-01T14:52:47;21.80;57.40
1025;DHT22;501;48.214;11.350;2023-08-01T14:55:13;22.00;59.90
1025;DHT22;501;48.214;11.350;2023-08-01T14:57:39;22.20;57.00
1025;DHT22;501;48.214;11.350;2023-08-01T15:00:05;22.50;53.80
1025;DHT22;501;48.214;11.350;2023-08-01T15:02:31;22.60;52.30
1025;DHT22;501;48.214;11.350;2023-08-01T15:04:57;22.60;50.50
1025;DHT22;501;48.214;11.350;2023-08-01T15:07:24;22.40;50.20
1025;DHT22;501;48.214;11.350;2023-08-01T15:09:51;22.20;52.10
1025;DHT22;501;48.214;11.350;2023-08-01T15:12:18;22.00;51.90
1025;DHT22;501;48.214;11.350;2023-08-01T15:14:58;21.80;53.30
1025;DHT22;501;48.214;11.350;2023-08-01T15:17:24;21.60;53.20
1025;DHT22;501;48.214;11.350;2023-08-01T15:19:50;21.40;54.80
1025;DHT22;501;48.214;11.350;2023-08-01T15:22:17;21.30;55.90
1025;DHT22;501;48.214;11.350;2023-08-01T15:24:43;21.10;55.70
1025;DHT22;501;48.214;11.350;2023-08-01T15:27:09;20.90;55.80
1025;DHT22;501;48.214;11.350;2023-08-01T15:29:35;20.70;56.20
1025;DHT22;501;48.214;11.350;2023-08-01T15:32:01;20.40;54.10
1025;DHT22;501;48.214;11.350;2023-08-01T15:34:27;20.20;57.00
1025;DHT22;501;48.214;11.350;2023-08-01T15:36:53;20.10;58.20
1025;DHT22;501;48.214;11.350;2023-08-01T15:39:19;20.30;58.40
1025;DHT22;501;48.214;11.350;2023-08-01T15:41:46;20.50;62.90
1025;DHT22;501;48.214;11.350;2023-08-01T15:44:12;20.80;61.00
1025;DHT22;501;48.214;11.350;2023-08-01T15:46:38;21.00;55.70
1025;DHT22;501;48.214;11.350;2023-08-01T15:49:04;21.20;55.90
1025;DHT22;501;48.214;11.350;2023-08-01T15:51:30;21.30;53.60
1025;DHT22;501;48.214;11.350;2023-08-01T15:53:57;21.40;52.80
1025;DHT22;501;48.214;11.350;2023-08-01T15:56:23;21.50;56.00
1025;DHT22;501;48.214;11.350;2023-08-01T15:58:48;21.60;47.50
1025;DHT22;501;48.214;11.350;2023-08-01T16:01:14;21.60;50.00
1025;DHT22;501;48.214;11.350;2023-08-01T16:03:41;21.60;47.80